Time;durP1;ratioP1;P1;durP2;ratioP2;P2;SDS_P1;SDS_P2;PMS_P1;PMS_P2;Temp;Humidity;BMP_temperature;BMP_pressure;BME280_temperature;BME280_humidity;BME280_pressure;Samples;Min_cycle;Max_cycle;Signal;HPM_P1;HPM_P2
2022/04/17 00:02:02;;;;;;;;;;;5.60;98.00;;;;;;4997947;28;19928;-67
2022/04/17 00:04:27;;;;;;;;;;;5.50;98.50;;;;;;5027853;28;19928;-68
2022/04/17 00:06:53;;;;;;;;;;;5.50;98.30;;;;;;5012401;28;19922;-68
2022/04/17 00:09:19;;;;;;;;;;;5.50;98.70;;;;;;5002660;28;20003;-69
2022/04/17 00:11:46;;;;;;;;;;;5.40;99.00;;;;;;5023305;28;20382;-69
2022/04/17 00:14:14;;;;;;;;;;;5.40;99.50;;;;;;5000147;28;19922;-68
2022/04/17 00:16:41;;;;;;;;;;;5.40;99.90;;;;;;5016495;28;20510;-69
2022/04/17 00:19:13;;;;;;;;;;;5.40;99.30;;;;;;4998055;28;20016;-68
2022/04/17 00:21:39;;;;;;;;;;;5.40;99.60;;;;;;5010557;28;19928;-68
2022/04/17 00:24:04;;;;;;;;;;;5.30;99.90;;;;;;5007396;28;20377;-68
2022/04/17 00:26:33;;;;;;;;;;;5.30;99.90;;;;;;5001643;28;19922;-68
2022/04/17 00:28:58;;;;;;;;;;;5.30;99.90;;;;;;5003264;28;20039;-68
2022/04/17 00:31:24;;;;;;;;;;;5.20;99.90;;;;;;5003151;28;19929;-67
2022/04/17 00:33:50;;;;;;;;;;;5.40;99.90;;;;;;5004351;28;19929;-68
2022/04/17 00:36:15;;;;;;;;;;;5.20;99.90;;;;;;5005016;28;19967;-68
2022/04/17 00:38:42;;;;;;;;;;;6.70;99.90;;;;;;5025688;28;19921;-67
2022/04/17 00:41:08;;;;;;;;;;;5.10;99.90;;;;;;5005695;28;19939;-67
2022/04/17 00:43:42;;;;;;;;;;;5.10;99.90;;;;;;5003728;28;20012;-69
2022/04/17 00:46:08;;;;;;;;;;;5.10;99.90;;;;;;5005664;28;19971;-68
2022/04/17 00:48:33;;;;;;;;;;;5.20;99.90;;;;;;4999036;28;20008;-67
2022/04/17 00:51:00;;;;;;;;;;;5.00;99.90;;;;;;5011467;28;19921;-67
2022/04/17 00:53:26;;;;;;;;;;;5.00;99.90;;;;;;5010411;28;19921;-68
2022/04/17 00:55:52;;;;;;;;;;;5.40;99.90;;;;;;5004069;28;19921;-69
2022/04/17 00:58:18;;;;;;;;;;;5.00;99.90;;;;;;5007938;28;20008;-69
2022/04/17 01:00:45;;;;;;;;;;;5.00;99.90;;;;;;5004886;28;19931;-68
2022/04/17 01:03:12;;;;;;;;;;;5.60;99.90;;;;;;5004580;28;19921;-67
2022/04/17 01:05:41;;;;;;;;;;;4.90;99.90;;;;;;5016156;28;19922;-69
2022/04/17 01:08:10;;;;;;;;;;;4.90;99.90;;;;;;5008796;28;19922;-67
2022/04/17 01:10:37;;;;;;;;;;;5.80;99.90;;;;;;4987708;28;20443;-67
2022/04/17 01:13:06;;;;;;;;;;;4.80;99.90;;;;;;5005355;28;19921;-68
2022/04/17 01:15:32;;;;;;;;;;;4.80;99.90;;;;;;5023801;28;19932;-67
2022/04/17 01:17:58;;;;;;;;;;;4.80;99.90;;;;;;5010463;28;20004;-66
2022/04/17 01:20:24;;;;;;;;;;;4.80;99.90;;;;;;5005707;28;19926;-68
2022/04/17 01:28:26;;;;;;;;;;;4.80;99.90;;;;;;5001951;28;19976;-68
2022/04/17 01:30:56;;;;;;;;;;;4.70;99.90;;;;;;5007254;28;19922;-68
2022/04/17 01:33:23;;;;;;;;;;;4.60;99.90;;;;;;5009484;28;20029;-67
2022/04/17 01:35:50;;;;;;;;;;;5.10;99.90;;;;;;5007822;28;19945;-68
2022/04/17 01:38:15;;;;;;;;;;;4.60;99.90;;;;;;5005733;28;20427;-68
2022/04/17 01:40:41;;;;;;;;;;;4.60;99.90;;;;;;5001693;28;20004;-68
2022/04/17 01:43:07;;;;;;;;;;;4.60;99.90;;;;;;5007140;28;20334;-67
2022/04/17 01:45:36;;;;;;;;;;;4.50;99.90;;;;;;5001181;28;20484;-68
2022/04/17 01:48:01;;;;;;;;;;;4.50;99.90;;;;;;5005671;28;19921;-68
2022/04/17 01:50:27;;;;;;;;;;;4.50;99.90;;;;;;5007531;28;19953;-67
2022/04/17 01:52:59;;;;;;;;;;;4.50;99.90;;;;;;5003942;28;19930;-69
2022/04/17 01:55:25;;;;;;;;;;;4.50;99.90;;;;;;5007834;28;19932;-67
2022/04/17 01:57:54;;;;;;;;;;;4.50;99.90;;;;;;5006824;28;20379;-73
2022/04/17 02:00:19;;;;;;;;;;;4.40;99.90;;;;;;5006300;28;19921;-67
2022/04/17 02:02:45;;;;;;;;;;;4.40;99.90;;;;;;5013577;28;19944;-68
2022/04/17 02:05:10;;;;;;;;;;;4.40;99.90;;;;;;5006533;28;19976;-68
2022/04/17 02:07:37;;;;;;;;;;;4.40;99.90;;;;;;5004859;28;19925;-68
2022/04/17 02:10:03;;;;;;;;;;;4.30;99.90;;;;;;5006860;28;20004;-67
2022/04/17 02:12:29;;;;;;;;;;;4.30;99.90;;;;;;5003040;28;19922;-68
2022/04/17 02:14:54;;;;;;;;;;;4.30;99.90;;;;;;5000309;28;19929;-67
2022/04/17 02:17:20;;;;;;;;;;;4.20;99.90;;;;;;5008543;28;19921;-68
2022/04/17 02:19:48;;;;;;;;;;;4.20;99.90;;;;;;5000886;28;20031;-67
2022/04/17 02:22:14;;;;;;;;;;;4.60;99.90;;;;;;5006933;28;20014;-68
2022/04/17 02:24:39;;;;;;;;;;;4.20;99.90;;;;;;5014552;28;19922;-68
2022/04/17 02:27:05;;;;;;;;;;;5.00;99.90;;;;;;5001265;28;20048;-68
2022/04/17 02:29:33;;;;;;;;;;;4.20;99.90;;;;;;5005736;28;20354;-67
2022/04/17 02:31:58;;;;;;;;;;;4.20;99.90;;;;;;4998543;28;19922;-68
2022/04/17 02:34:24;;;;;;;;;;;4.10;99.90;;;;;;5003615;28;19980;-68
2022/04/17 02:36:49;;;;;;;;;;;4.30;99.90;;;;;;5009737;28;19929;-68
2022/04/17 02:39:15;;;;;;;;;;;4.10;99.90;;;;;;5021764;28;19921;-67
2022/04/17 02:41:40;;;;;;;;;;;4.10;99.90;;;;;;5004230;28;19983;-67
2022/04/17 02:44:06;;;;;;;;;;;4.10;99.90;;;;;;5006037;28;19960;-68
2022/04/17 02:49:18;;;;;;;;;;;4.00;99.90;;;;;;5001518;28;19929;-67
2022/04/17 02:51:44;;;;;;;;;;;4.00;99.90;;;;;;5000648;28;20359;-67
2022/04/17 02:54:09;;;;;;;;;;;4.00;99.90;;;;;;5010644;28;19921;-67
2022/04/17 02:56:35;;;;;;;;;;;3.90;99.90;;;;;;5001908;28;19968;-68
2022/04/17 02:59:00;;;;;;;;;;;4.20;99.90;;;;;;5004299;28;19929;-68
2022/04/17 03:06:55;;;;;;;;;;;3.80;99.90;;;;;;4997314;28;20370;-68
2022/04/17 03:09:21;;;;;;;;;;;3.80;99.90;;;;;;5007505;28;19929;-67
2022/04/17 03:11:46;;;;;;;;;;;3.80;99.90;;;;;;5003901;28;20275;-67
2022/04/17 03:14:13;;;;;;;;;;;3.80;99.90;;;;;;5001435;28;19921;-69
2022/04/17 03:16:38;;;;;;;;;;;3.80;99.90;;;;;;5018471;28;19925;-67
2022/04/17 03:19:04;;;;;;;;;;;3.80;99.90;;;;;;5003101;28;19929;-68
2022/04/17 03:21:31;;;;;;;;;;;5.20;99.90;;;;;;5006791;28;19949;-68
2022/04/17 03:23:56;;;;;;;;;;;3.80;99.90;;;;;;5007535;28;19921;-69
2022/04/17 03:26:22;;;;;;;;;;;3.70;99.90;;;;;;5001476;28;19975;-69
2022/04/17 03:28:47;;;;;;;;;;;3.60;99.90;;;;;;5003082;28;19925;-69
2022/04/17 03:31:13;;;;;;;;;;;3.60;99.90;;;;;;5011668;28;20437;-68
2022/04/17 03:33:38;;;;;;;;;;;3.60;99.90;;;;;;5011868;28;19932;-68
2022/04/17 03:36:04;;;;;;;;;;;3.60;99.90;;;;;;5003588;28;19961;-68
2022/04/17 03:38:29;;;;;;;;;;;3.60;99.90;;;;;;5014548;28;20315;-67
2022/04/17 03:40:55;;;;;;;;;;;3.60;99.90;;;;;;4996539;28;20016;-68
2022/04/17 03:43:23;;;;;;;;;;;3.60;99.90;;;;;;5018690;28;19928;-68
2022/04/17 03:45:49;;;;;;;;;;;3.60;99.90;;;;;;5007944;28;19996;-68
2022/04/17 03:48:16;;;;;;;;;;;3.60;99.90;;;;;;5009782;28;20095;-68
2022/04/17 03:50:43;;;;;;;;;;;3.60;99.90;;;;;;5001107;28;20264;-67
2022/04/17 03:53:08;;;;;;;;;;;3.70;99.90;;;;;;5002244;28;19921;-68
2022/04/17 03:55:35;;;;;;;;;;;3.70;99.90;;;;;;5002866;28;20024;-68
2022/04/17 03:58:01;;;;;;;;;;;3.70;99.90;;;;;;5008084;28;19921;-68
2022/04/17 04:00:27;;;;;;;;;;;3.70;99.90;;;;;;5024685;28;20000;-67
2022/04/17 04:02:53;;;;;;;;;;;3.70;99.90;;;;;;4999261;28;19967;-67
2022/04/17 04:05:19;;;;;;;;;;;4.30;99.90;;;;;;5002331;28;19922;-68
2022/04/17 04:07:45;;;;;;;;;;;3.70;99.90;;;;;;5006037;28;19925;-68
2022/04/17 04:10:10;;;;;;;;;;;3.70;99.90;;;;;;5013058;28;20268;-67
2022/04/17 04:12:37;;;;;;;;;;;3.70;99.90;;;;;;5009362;28;19925;-67
2022/04/17 04:15:03;;;;;;;;;;;4.50;99.90;;;;;;5003944;28;19921;-68
2022/04/17 04:17:34;;;;;;;;;;;3.70;99.90;;;;;;5003531;28;19922;-68
2022/04/17 04:20:00;;;;;;;;;;;3.70;99.90;;;;;;5007474;28;19933;-67
2022/04/17 04:22:26;;;;;;;;;;;3.60;99.90;;;;;;5014714;28;19972;-68
2022/04/17 04:24:52;;;;;;;;;;;4.20;99.90;;;;;;5007606;28;19971;-68
2022/04/17 04:30:02;;;;;;;;;;;4.10;99.90;;;;;;5012519;28;19960;-68
2022/04/17 04:32:28;;;;;;;;;;;3.50;99.90;;;;;;5010726;28;19952;-67
2022/04/17 04:34:57;;;;;;;;;;;3.60;99.90;;;;;;5008487;28;19929;-67
2022/04/17 04:37:22;;;;;;;;;;;3.50;99.90;;;;;;5015680;28;20035;-67
2022/04/17 04:39:48;;;;;;;;;;;4.90;99.90;;;;;;5013625;28;19972;-67
2022/04/17 04:42:14;;;;;;;;;;;3.50;99.90;;;;;;5015274;28;19943;-67
2022/04/17 04:44:39;;;;;;;;;;;3.50;99.90;;;;;;5002448;28;20441;-68
2022/04/17 04:47:05;;;;;;;;;;;3.50;99.90;;;;;;5005890;28;19928;-67
2022/04/17 04:49:30;;;;;;;;;;;3.50;99.90;;;;;;5017625;28;19921;-67
2022/04/17 04:52:00;;;;;;;;;;;3.50;99.90;;;;;;5011702;28;20363;-68
2022/04/17 04:54:26;;;;;;;;;;;3.50;99.90;;;;;;5003602;28;19921;-68
2022/04/17 04:56:53;;;;;;;;;;;3.50;99.90;;;;;;5010352;28;19936;-68
2022/04/17 04:59:20;;;;;;;;;;;3.50;99.90;;;;;;5011898;28;19913;-68
2022/04/17 05:01:46;;;;;;;;;;;3.50;99.90;;;;;;4999040;28;20268;-67
2022/04/17 05:04:11;;;;;;;;;;;3.80;99.90;;;;;;5003629;28;20017;-67
2022/04/17 05:06:37;;;;;;;;;;;3.60;99.90;;;;;;5007388;28;20372;-68
2022/04/17 05:09:03;;;;;;;;;;;3.60;99.90;;;;;;5008591;28;19948;-66
2022/04/17 05:11:28;;;;;;;;;;;3.60;99.90;;;;;;5006577;28;19968;-68
2022/04/17 05:13:53;;;;;;;;;;;3.60;99.90;;;;;;5002549;28;19926;-68
2022/04/17 05:16:19;;;;;;;;;;;3.70;99.90;;;;;;5001734;28;19976;-69
2022/04/17 05:18:47;;;;;;;;;;;4.00;99.90;;;;;;5000519;28;19968;-68
2022/04/17 05:21:13;;;;;;;;;;;3.80;99.90;;;;;;5003712;28;19976;-68
2022/04/17 05:23:39;;;;;;;;;;;3.80;99.90;;;;;;5009795;28;19935;-68
2022/04/17 05:26:05;;;;;;;;;;;4.40;99.90;;;;;;5006819;28;20008;-68
2022/04/17 05:28:31;;;;;;;;;;;4.00;99.90;;;;;;5007355;28;20021;-68
2022/04/17 05:30:57;;;;;;;;;;;4.00;99.90;;;;;;5006720;28;20287;-67
2022/04/17 05:33:23;;;;;;;;;;;4.10;99.90;;;;;;5009892;28;19967;-67
2022/04/17 05:35:49;;;;;;;;;;;4.20;99.90;;;;;;5009059;28;19921;-67
2022/04/17 05:38:15;;;;;;;;;;;4.20;99.90;;;;;;5005683;28;19941;-68
2022/04/17 05:40:42;;;;;;;;;;;4.30;99.90;;;;;;5001964;28;19929;-69
2022/04/17 05:43:08;;;;;;;;;;;4.40;99.90;;;;;;5005597;28;19929;-68
2022/04/17 05:45:37;;;;;;;;;;;4.60;99.90;;;;;;5008381;28;19929;-68
2022/04/17 05:48:03;;;;;;;;;;;4.80;99.90;;;;;;4999976;28;19922;-67
2022/04/17 05:50:28;;;;;;;;;;;4.90;99.90;;;;;;5006086;28;19921;-68
2022/04/17 05:52:54;;;;;;;;;;;5.00;99.90;;;;;;5008237;28;19921;-67
2022/04/17 05:55:20;;;;;;;;;;;6.90;99.90;;;;;;5005963;28;19922;-68
2022/04/17 05:57:46;;;;;;;;;;;5.20;99.90;;;;;;5019394;28;20410;-68
2022/04/17 06:00:12;;;;;;;;;;;5.30;99.90;;;;;;4998151;28;19921;-67
2022/04/17 06:02:38;;;;;;;;;;;5.40;99.90;;;;;;5020757;28;19928;-68
2022/04/17 06:05:04;;;;;;;;;;;5.80;99.90;;;;;;5013798;28;19925;-67
2022/04/17 06:07:30;;;;;;;;;;;5.70;99.90;;;;;;5006481;28;19921;-68
2022/04/17 06:10:00;;;;;;;;;;;6.00;99.90;;;;;;5011924;28;19925;-68
2022/04/17 06:12:25;;;;;;;;;;;6.20;99.90;;;;;;5023607;28;19922;-68
2022/04/17 06:14:51;;;;;;;;;;;6.70;99.90;;;;;;5003299;28;19936;-67
2022/04/17 06:17:16;;;;;;;;;;;7.30;99.90;;;;;;5009047;28;19928;-67
2022/04/17 06:19:42;;;;;;;;;;;8.00;99.90;;;;;;5004720;28;19968;-68
2022/04/17 06:22:10;;;;;;;;;;;8.70;99.90;;;;;;5003429;28;19921;-68
2022/04/17 06:24:36;;;;;;;;;;;9.20;99.90;;;;;;5009285;28;20323;-67
2022/04/17 06:27:01;;;;;;;;;;;9.70;99.90;;;;;;5006807;28;19940;-68
2022/04/17 06:29:27;;;;;;;;;;;10.10;99.10;;;;;;5002791;28;19922;-68
2022/04/17 06:31:52;;;;;;;;;;;10.50;97.90;;;;;;5002321;28;20340;-68
2022/04/17 06:34:18;;;;;;;;;;;10.80;97.50;;;;;;5001207;28;19965;-68
2022/04/17 06:36:43;;;;;;;;;;;11.00;96.00;;;;;;5011129;28;19921;-67
2022/04/17 06:39:09;;;;;;;;;;;11.00;95.10;;;;;;5010530;28;19928;-68
2022/04/17 06:41:35;;;;;;;;;;;10.90;95.50;;;;;;5004746;28;19928;-67
2022/04/17 06:44:00;;;;;;;;;;;10.70;96.30;;;;;;5009862;28;20251;-68
2022/04/17 06:46:26;;;;;;;;;;;10.60;96.10;;;;;;5015324;28;19984;-68
2022/04/17 06:48:51;;;;;;;;;;;10.70;96.40;;;;;;5009726;28;19968;-68
2022/04/17 06:51:22;;;;;;;;;;;11.20;96.10;;;;;;5008342;28;19922;-67
2022/04/17 06:53:48;;;;;;;;;;;11.70;95.40;;;;;;5011384;28;19929;-68
2022/04/17 06:56:16;;;;;;;;;;;12.10;94.50;;;;;;5009192;28;19926;-69
2022/04/17 06:58:42;;;;;;;;;;;12.40;93.40;;;;;;5009646;28;20240;-69
2022/04/17 07:01:07;;;;;;;;;;;12.30;92.00;;;;;;5003957;28;19960;-68
2022/04/17 07:03:33;;;;;;;;;;;12.30;91.80;;;;;;5011432;28;19956;-68
2022/04/17 07:05:59;;;;;;;;;;;12.20;91.80;;;;;;4998735;28;19928;-66
2022/04/17 07:08:25;;;;;;;;;;;12.00;92.60;;;;;;5004779;28;20180;-67
2022/04/17 07:10:50;;;;;;;;;;;11.90;92.60;;;;;;5005402;28;20020;-68
2022/04/17 07:13:18;;;;;;;;;;;11.80;92.30;;;;;;5005109;28;20029;-68
2022/04/17 07:15:43;;;;;;;;;;;11.60;91.90;;;;;;5025160;28;19932;-68
2022/04/17 07:18:09;;;;;;;;;;;11.60;92.10;;;;;;5004719;28;19922;-68
2022/04/17 07:20:35;;;;;;;;;;;11.40;92.10;;;;;;5024128;28;19921;-67
2022/04/17 07:23:01;;;;;;;;;;;11.40;91.70;;;;;;5000364;28;19921;-68
2022/04/17 07:25:27;;;;;;;;;;;11.40;92.20;;;;;;5018364;28;19936;-68
2022/04/17 07:27:53;;;;;;;;;;;11.40;92.30;;;;;;5006613;28;19929;-68
2022/04/17 07:30:20;;;;;;;;;;;11.50;92.30;;;;;;5009104;28;19921;-67
2022/04/17 07:32:52;;;;;;;;;;;12.10;92.30;;;;;;4998252;28;19922;-68
2022/04/17 07:35:18;;;;;;;;;;;11.50;92.00;;;;;;4999933;28;19936;-68
2022/04/17 07:37:48;;;;;;;;;;;11.60;92.20;;;;;;5004700;28;19957;-68
2022/04/17 07:40:15;;;;;;;;;;;11.60;92.10;;;;;;5019163;28;19936;-68
2022/04/17 07:42:42;;;;;;;;;;;11.60;92.30;;;;;;4999181;28;19929;-68
2022/04/17 07:45:08;;;;;;;;;;;11.80;92.60;;;;;;5003846;28;20330;-68
2022/04/17 07:47:34;;;;;;;;;;;11.90;92.50;;;;;;5017934;28;20346;-68
2022/04/17 07:49:59;;;;;;;;;;;12.00;92.10;;;;;;5007094;28;20013;-68
2022/04/17 07:52:25;;;;;;;;;;;12.10;91.60;;;;;;4999004;28;19979;-68
2022/04/17 07:54:50;;;;;;;;;;;12.20;91.40;;;;;;5001338;28;19932;-68
2022/04/17 07:57:16;;;;;;;;;;;12.30;91.10;;;;;;5007116;28;19940;-68
2022/04/17 07:59:41;;;;;;;;;;;12.40;90.70;;;;;;4995571;28;19941;-67
2022/04/17 08:02:28;;;;;;;;;;;12.40;90.60;;;;;;5021956;28;19925;-67
2022/04/17 08:04:53;;;;;;;;;;;12.40;90.40;;;;;;4996168;28;19929;-67
2022/04/17 08:07:19;;;;;;;;;;;12.50;90.40;;;;;;4995119;28;20363;-67
2022/04/17 08:09:45;;;;;;;;;;;12.60;90.60;;;;;;5003896;28;19980;-68
2022/04/17 08:12:10;;;;;;;;;;;12.70;89.90;;;;;;5006095;28;20394;-68
2022/04/17 08:14:37;;;;;;;;;;;12.80;89.40;;;;;;4997448;28;19925;-68
2022/04/17 08:17:03;;;;;;;;;;;12.70;89.60;;;;;;4987011;28;19972;-69
2022/04/17 08:19:31;;;;;;;;;;;12.80;90.40;;;;;;5000501;28;19919;-67
2022/04/17 08:21:57;;;;;;;;;;;12.90;90.20;;;;;;4999720;28;20020;-68
2022/04/17 08:24:23;;;;;;;;;;;12.90;89.60;;;;;;5008789;28;19925;-67
2022/04/17 08:26:49;;;;;;;;;;;13.10;90.20;;;;;;5006433;28;20669;-68
2022/04/17 08:29:17;;;;;;;;;;;13.20;88.30;;;;;;5007598;28;19983;-68
2022/04/17 08:31:42;;;;;;;;;;;13.30;88.10;;;;;;4994835;28;19925;-67
2022/04/17 08:34:08;;;;;;;;;;;13.40;88.20;;;;;;4998203;28;19926;-66
2022/04/17 08:36:34;;;;;;;;;;;13.50;87.50;;;;;;4995078;28;19929;-68
2022/04/17 08:38:59;;;;;;;;;;;13.60;87.30;;;;;;5002676;28;19979;-67
2022/04/17 08:41:26;;;;;;;;;;;13.70;86.20;;;;;;5003581;28;19948;-68
2022/04/17 08:43:51;;;;;;;;;;;13.60;85.10;;;;;;5005528;28;19926;-67
2022/04/17 08:46:17;;;;;;;;;;;13.80;85.80;;;;;;5006955;28;19932;-66
2022/04/17 08:48:42;;;;;;;;;;;13.90;86.10;;;;;;5005963;28;19925;-67
2022/04/17 08:51:08;;;;;;;;;;;14.10;84.10;;;;;;5005539;28;20414;-68
2022/04/17 08:53:35;;;;;;;;;;;14.30;84.60;;;;;;5006896;28;19932;-70
2022/04/17 08:56:01;;;;;;;;;;;14.40;81.40;;;;;;5010089;28;19927;-68
2022/04/17 08:58:27;;;;;;;;;;;14.40;81.20;;;;;;4995749;28;19922;-66
2022/04/17 09:00:52;;;;;;;;;;;14.60;82.30;;;;;;5000992;28;19921;-67
2022/04/17 09:03:18;;;;;;;;;;;14.60;80.90;;;;;;5008285;28;19921;-68
2022/04/17 09:05:43;;;;;;;;;;;14.50;79.90;;;;;;5002060;28;19925;-67
2022/04/17 09:08:16;;;;;;;;;;;14.70;78.50;;;;;;5003165;28;19932;-66
2022/04/17 09:10:52;;;;;;;;;;;14.80;80.90;;;;;;5005373;28;19921;-66
2022/04/17 09:13:24;;;;;;;;;;;14.80;78.50;;;;;;5012171;28;19924;-67
2022/04/17 09:15:49;;;;;;;;;;;14.90;78.20;;;;;;5007356;28;19964;-67
2022/04/17 09:18:17;;;;;;;;;;;15.10;78.90;;;;;;5002342;28;20332;-67
2022/04/17 09:20:49;;;;;;;;;;;15.30;77.80;;;;;;5009472;28;20382;-66
2022/04/17 09:23:15;;;;;;;;;;;15.20;75.20;;;;;;5001799;28;20310;-67
2022/04/17 09:25:43;;;;;;;;;;;15.50;77.90;;;;;;5024544;28;20012;-67
2022/04/17 09:28:09;;;;;;;;;;;15.70;76.70;;;;;;5008292;28;19921;-66
2022/04/17 09:30:38;;;;;;;;;;;15.90;74.90;;;;;;5005762;28;19939;-66
2022/04/17 09:33:09;;;;;;;;;;;15.90;73.60;;;;;;5005659;28;20429;-66
2022/04/17 09:35:35;;;;;;;;;;;15.90;72.30;;;;;;5007448;28;19922;-66
2022/04/17 09:38:05;;;;;;;;;;;15.90;71.60;;;;;;5003037;28;19949;-66
2022/04/17 09:40:31;;;;;;;;;;;16.00;73.20;;;;;;5001290;28;19963;-67
2022/04/17 09:43:12;;;;;;;;;;;16.20;70.80;;;;;;5004043;28;19929;-67
2022/04/17 09:45:54;;;;;;;;;;;16.40;68.80;;;;;;5001103;28;19928;-66
2022/04/17 09:48:20;;;;;;;;;;;16.40;66.50;;;;;;5006440;28;19921;-67
2022/04/17 09:50:46;;;;;;;;;;;16.60;66.80;;;;;;4998078;28;19968;-66
2022/04/17 09:53:27;;;;;;;;;;;16.60;64.50;;;;;;4996520;28;19997;-66
2022/04/17 09:56:02;;;;;;;;;;;16.70;64.60;;;;;;5001429;28;20033;-66
2022/04/17 09:58:31;;;;;;;;;;;16.90;62.70;;;;;;5015103;28;19972;-67
2022/04/17 10:00:58;;;;;;;;;;;17.10;62.70;;;;;;5003445;28;19926;-66
2022/04/17 10:03:24;;;;;;;;;;;17.30;63.90;;;;;;5007793;28;19925;-68
2022/04/17 10:05:49;;;;;;;;;;;17.60;62.00;;;;;;5001495;28;19929;-66
2022/04/17 10:08:15;;;;;;;;;;;17.60;59.60;;;;;;4999056;28;19933;-66
2022/04/17 10:10:41;;;;;;;;;;;17.60;57.00;;;;;;5005846;28;19928;-66
2022/04/17 10:13:06;;;;;;;;;;;17.70;56.80;;;;;;5004311;28;19936;-66
2022/04/17 10:15:32;;;;;;;;;;;17.90;57.10;;;;;;5000411;28;20893;-64
2022/04/17 10:17:59;;;;;;;;;;;17.90;56.40;;;;;;5004922;28;19929;-65
2022/04/17 10:20:25;;;;;;;;;;;17.70;54.70;;;;;;5005351;28;20287;-64
2022/04/17 10:22:57;;;;;;;;;;;17.50;56.70;;;;;;5003624;28;19921;-66
2022/04/17 10:25:23;;;;;;;;;;;17.70;55.20;;;;;;5003573;28;19955;-66
2022/04/17 10:27:50;;;;;;;;;;;17.80;56.60;;;;;;4998209;28;20295;-65
2022/04/17 10:30:18;;;;;;;;;;;18.10;52.50;;;;;;5003440;28;20696;-65
2022/04/17 10:32:52;;;;;;;;;;;18.30;53.00;;;;;;5006016;28;19929;-67
2022/04/17 10:35:37;;;;;;;;;;;18.50;51.20;;;;;;5009066;28;20014;-65
2022/04/17 10:38:05;;;;;;;;;;;18.70;51.30;;;;;;5006462;28;20431;-67
2022/04/17 10:40:34;;;;;;;;;;;18.80;53.10;;;;;;5007351;28;20284;-64
2022/04/17 10:43:00;;;;;;;;;;;18.80;50.20;;;;;;5011035;28;19921;-66
2022/04/17 10:45:26;;;;;;;;;;;19.20;50.50;;;;;;5007176;28;19925;-64
2022/04/17 10:48:01;;;;;;;;;;;19.10;48.20;;;;;;5005867;28;19976;-65
2022/04/17 10:50:29;;;;;;;;;;;19.30;47.20;;;;;;5001769;28;19976;-65
2022/04/17 10:52:54;;;;;;;;;;;19.60;48.20;;;;;;4999871;28;19929;-64
2022/04/17 10:55:20;;;;;;;;;;;19.90;48.50;;;;;;4999299;28;20295;-66
2022/04/17 10:57:48;;;;;;;;;;;20.10;47.60;;;;;;5007445;28;20040;-66
2022/04/17 11:00:27;;;;;;;;;;;20.60;47.90;;;;;;5000184;28;19929;-65
2022/04/17 11:02:53;;;;;;;;;;;20.50;44.30;;;;;;4998999;28;19926;-66
2022/04/17 11:08:22;;;;;;;;;;;20.90;43.80;;;;;;5000466;28;20011;-65
2022/04/17 11:11:00;;;;;;;;;;;20.90;43.70;;;;;;5007139;28;20367;-67
2022/04/17 11:13:26;;;;;;;;;;;20.90;42.10;;;;;;4999525;28;20032;-65
2022/04/17 11:15:54;;;;;;;;;;;20.40;41.80;;;;;;5005031;28;19971;-68
2022/04/17 11:18:23;;;;;;;;;;;20.60;42.80;;;;;;4999257;28;19933;-66
2022/04/17 11:20:53;;;;;;;;;;;20.80;41.70;;;;;;5001300;28;20383;-68
2022/04/17 11:23:37;;;;;;;;;;;21.00;41.60;;;;;;5001423;28;19929;-67
2022/04/17 11:26:03;;;;;;;;;;;21.30;42.10;;;;;;5004186;28;20016;-67
2022/04/17 11:28:32;;;;;;;;;;;21.40;42.00;;;;;;4996034;28;20016;-68
2022/04/17 11:30:58;;;;;;;;;;;21.50;42.80;;;;;;5008672;28;20406;-68
2022/04/17 11:33:24;;;;;;;;;;;21.70;41.90;;;;;;4994873;28;19976;-67
2022/04/17 11:35:50;;;;;;;;;;;21.60;41.40;;;;;;5000786;28;19952;-66
2022/04/17 11:38:16;;;;;;;;;;;21.50;41.60;;;;;;5003407;28;19925;-68
2022/04/17 11:40:44;;;;;;;;;;;22.30;44.40;;;;;;5001403;28;19976;-67
2022/04/17 11:43:10;;;;;;;;;;;21.80;43.20;;;;;;5001440;28;20056;-69
2022/04/17 11:45:40;;;;;;;;;;;21.90;42.20;;;;;;5020601;28;20322;-67
2022/04/17 11:48:10;;;;;;;;;;;21.60;41.70;;;;;;4993877;28;19932;-68
2022/04/17 11:50:36;;;;;;;;;;;21.60;44.10;;;;;;5001981;28;19987;-68
2022/04/17 11:53:08;;;;;;;;;;;21.70;42.50;;;;;;5019141;28;19986;-68
2022/04/17 11:55:35;;;;;;;;;;;21.80;42.40;;;;;;5000805;28;19944;-66
2022/04/17 11:58:01;;;;;;;;;;;22.00;41.70;;;;;;5014665;28;19960;-68
2022/04/17 12:00:27;;;;;;;;;;;21.90;41.00;;;;;;5001777;28;19960;-67
2022/04/17 12:02:58;;;;;;;;;;;21.90;42.30;;;;;;5003413;28;20510;-67
2022/04/17 12:05:27;;;;;;;;;;;22.00;43.10;;;;;;5001422;28;20708;-67
2022/04/17 12:08:06;;;;;;;;;;;22.20;40.60;;;;;;5003157;28;20379;-66
2022/04/17 12:10:32;;;;;;;;;;;22.20;39.00;;;;;;5007984;28;19952;-67
2022/04/17 12:13:10;;;;;;;;;;;22.40;38.80;;;;;;5001815;28;19921;-67
2022/04/17 12:15:35;;;;;;;;;;;22.80;40.80;;;;;;4995963;28;20323;-67
2022/04/17 12:18:01;;;;;;;;;;;22.60;38.80;;;;;;4999905;28;19932;-67
2022/04/17 12:20:26;;;;;;;;;;;22.70;40.80;;;;;;5004438;28;19932;-66
2022/04/17 12:22:52;;;;;;;;;;;22.80;38.40;;;;;;4991544;28;19933;-67
2022/04/17 12:25:20;;;;;;;;;;;22.60;40.70;;;;;;5009400;28;19987;-68
2022/04/17 12:27:46;;;;;;;;;;;22.70;41.50;;;;;;5006236;28;20300;-66
2022/04/17 12:30:12;;;;;;;;;;;22.90;40.40;;;;;;4993857;28;19940;-67
2022/04/17 12:32:47;;;;;;;;;;;22.90;40.20;;;;;;5011953;28;20008;-67
2022/04/17 12:35:19;;;;;;;;;;;23.00;39.50;;;;;;5012835;28;19925;-68
2022/04/17 12:37:45;;;;;;;;;;;23.10;39.80;;;;;;5009622;28;19925;-68
2022/04/17 12:40:12;;;;;;;;;;;23.10;39.60;;;;;;4992195;28;20389;-67
2022/04/17 12:42:38;;;;;;;;;;;23.30;41.20;;;;;;4997235;28;19925;-67
2022/04/17 12:45:05;;;;;;;;;;;23.40;41.10;;;;;;4995294;28;20015;-69
2022/04/17 12:47:31;;;;;;;;;;;23.50;39.00;;;;;;5012557;28;19958;-67
2022/04/17 12:50:03;;;;;;;;;;;23.90;40.00;;;;;;5013129;28;19925;-67
2022/04/17 12:52:29;;;;;;;;;;;24.30;41.40;;;;;;5012154;28;19926;-67
2022/04/17 12:54:56;;;;;;;;;;;24.50;39.90;;;;;;5012803;28;19967;-67
2022/04/17 12:57:22;;;;;;;;;;;24.70;39.00;;;;;;5012025;28;19932;-67
2022/04/17 12:59:51;;;;;;;;;;;24.80;37.60;;;;;;5012928;28;19921;-68
2022/04/17 13:02:17;;;;;;;;;;;24.70;40.00;;;;;;5027210;28;19925;-67
2022/04/17 13:04:44;;;;;;;;;;;24.70;39.60;;;;;;5022865;28;20441;-67
2022/04/17 13:07:11;;;;;;;;;;;24.70;38.80;;;;;;5012517;28;19925;-68
2022/04/17 13:09:36;;;;;;;;;;;24.80;38.20;;;;;;5011684;28;19968;-68
2022/04/17 13:12:02;;;;;;;;;;;24.70;38.00;;;;;;5005200;28;19969;-67
2022/04/17 13:14:28;;;;;;;;;;;24.20;36.70;;;;;;5022243;28;19925;-67
2022/04/17 13:16:56;;;;;;;;;;;24.40;37.80;;;;;;5012433;28;20250;-66
2022/04/17 13:19:23;;;;;;;;;;;24.40;37.50;;;;;;5010413;28;20024;-68
2022/04/17 13:21:49;;;;;;;;;;;24.30;38.10;;;;;;5010770;28;19926;-67
2022/04/17 13:24:16;;;;;;;;;;;24.20;37.60;;;;;;5027651;28;19925;-67
2022/04/17 13:26:42;;;;;;;;;;;24.30;37.60;;;;;;5004842;28;19973;-68
2022/04/17 13:29:08;;;;;;;;;;;24.40;38.50;;;;;;5009719;28;20319;-68
2022/04/17 13:31:35;;;;;;;;;;;24.10;37.90;;;;;;5010497;28;19932;-67
2022/04/17 13:34:01;;;;;;;;;;;24.00;37.80;;;;;;5011737;28;20044;-68
2022/04/17 13:36:26;;;;;;;;;;;24.10;39.00;;;;;;5001936;28;19941;-68
2022/04/17 13:38:52;;;;;;;;;;;24.50;39.00;;;;;;4990658;28;19945;-68
2022/04/17 13:41:17;;;;;;;;;;;24.20;37.20;;;;;;4996632;28;19928;-66
2022/04/17 13:43:43;;;;;;;;;;;24.10;37.00;;;;;;5012209;28;19947;-70
2022/04/17 13:46:09;;;;;;;;;;;23.80;37.10;;;;;;5005427;28;19976;-67
2022/04/17 13:48:35;;;;;;;;;;;23.20;36.40;;;;;;5011676;28;19972;-67
2022/04/17 13:51:07;;;;;;;;;;;23.30;37.10;;;;;;5010606;28;20287;-67
2022/04/17 13:53:33;;;;;;;;;;;23.30;37.50;;;;;;5011240;28;19969;-68
2022/04/17 13:55:59;;;;;;;;;;;23.70;36.80;;;;;;5002105;28;19968;-66
2022/04/17 13:58:25;;;;;;;;;;;23.90;38.00;;;;;;4999015;28;19925;-68
2022/04/17 14:00:50;;;;;;;;;;;24.10;36.40;;;;;;4994232;28;19925;-67
2022/04/17 14:03:16;;;;;;;;;;;24.30;36.30;;;;;;5009821;28;19932;-67
2022/04/17 14:05:42;;;;;;;;;;;24.40;36.40;;;;;;5010907;28;20354;-68
2022/04/17 14:08:08;;;;;;;;;;;24.70;36.70;;;;;;4994973;28;19925;-68
2022/04/17 14:10:34;;;;;;;;;;;24.50;35.40;;;;;;5001144;28;19925;-67
2022/04/17 14:12:59;;;;;;;;;;;24.20;35.80;;;;;;5009885;28;20379;-67
2022/04/17 14:15:25;;;;;;;;;;;23.30;36.90;;;;;;5007708;28;19929;-68
2022/04/17 14:17:50;;;;;;;;;;;22.10;37.90;;;;;;5008783;28;19929;-67
2022/04/17 14:20:16;;;;;;;;;;;21.30;38.60;;;;;;5010552;28;19977;-67
2022/04/17 14:22:41;;;;;;;;;;;20.40;40.00;;;;;;4999314;28;19960;-66
2022/04/17 14:25:07;;;;;;;;;;;19.90;41.40;;;;;;4992714;28;20060;-67
2022/04/17 14:27:32;;;;;;;;;;;19.40;41.60;;;;;;4992023;28;19999;-66
2022/04/17 14:29:58;;;;;;;;;;;19.00;42.80;;;;;;4996578;28;19926;-66
2022/04/17 14:32:23;;;;;;;;;;;18.80;43.00;;;;;;4999362;28;19929;-68
2022/04/17 14:34:49;;;;;;;;;;;18.50;42.70;;;;;;4993166;28;20387;-66
2022/04/17 14:37:15;;;;;;;;;;;18.30;43.00;;;;;;4991779;28;19925;-68
2022/04/17 14:39:40;;;;;;;;;;;18.00;43.40;;;;;;5016098;28;19929;-67
2022/04/17 14:42:06;;;;;;;;;;;17.90;44.10;;;;;;5000043;28;19925;-66